Hyannis, MA

8:45 AM EST on November 28, 2014 (GMT -0500)
Martha's Vineyard | Change Station
CLOSE
Current Station
Airport
Location: Martha's Vineyard,
Elevation: 69 ft
Nearby Weather Stations
Active Advisory: Winter Weather Advisory Active Notice: Public Information Statement

Elev 69 ft 41.39 °N, 70.61 °W | Updated 19 minutes ago

Snow
Snow
31 °F
Feels Like 18 °F
N
21
Wind Variable Wind from NNW
Gusts 26 mph

Today
High -- | Low -- °F
--% Chance of Precip.
Yesterday
High -- | Low -- °F
Precip. -- in
6:45 AM 4:12 PM
Waxing Crescent, 40% visible
Pressure 30.01 in
Visibility 1.8 miles
Clouds Mostly Cloudy 1400 ft
Overcast 2000 ft
Windchill 18 °F
Dew Point 29 °F
Humidity 92%
Rainfall 0.00 in
Snow Depth Not available.
UV 0 out of 12
Pollen .10 out of 12
Air Quality Not available.
Flu Activity Not available.
SPECI KMVY 281326Z 33018G23KT 1 3/4SM -SN BR BKN014 OVC020 M01/M02 A3001 RMK AO2 P0000 T10061017

More Conditions Fewer Conditions

Pressure 30.01 in
Visibility 1.8 miles
Clouds Mostly Cloudy 1400 ft
Overcast 2000 ft
Windchill 18 °F
Dew Point 29 °F
Humidity 92%
Rainfall 0.00 in
Snow Depth Not available.
UV 0 out of 12
Pollen .10 out of 12
Air Quality Not available.
Flu Activity Not available.
SPECI KMVY 281326Z 33018G23KT 1 3/4SM -SN BR BKN014 OVC020 M01/M02 A3001 RMK AO2 P0000 T10061017

More Conditions Fewer Conditions

10-Day Weather Forecast

Almanac

Astronomy

Nov. 28, 2014 Rise Set
Actual Time
Civil Twilight
Nautical Twilight
Astronomical Twilight
Moon
Length of Visible Light
Length of Day
Tomorrow will be .
, % of the Moon is Illuminated

Today's Extremes

State Highs State Lows

Community

WunderPhotos

Upload Photos

1,774,210 photos uploaded!

WunderBlogs® & News

Nearby

Air Quality

  Air Quality AQ Index Pollutant
Not available.

Snow Depth

Station Depth Elevation

Earthquake Activity

City Distance Mag. Time & Date
Minimum magnitude displayed is 2.5.

Coastal Water Temperatures

Place Temperature

Nearby Weather Stations